sensor_id;sensor_type;location;lat;lon;timestamp;P1;durP1;ratioP1;P2;durP2;ratioP2
22230;SDS011;11284;48.086;-1.652;2022-11-09T00:02:06;15.30;;;2.90;;
22230;SDS011;11284;48.086;-1.652;2022-11-09T00:04:32;15.95;;;3.22;;
22230;SDS011;11284;48.086;-1.652;2022-11-09T00:06:58;15.43;;;2.40;;
22230;SDS011;11284;48.086;-1.652;2022-11-09T00:09:25;13.50;;;2.80;;
22230;SDS011;11284;48.086;-1.652;2022-11-09T00:11:54;14.15;;;2.38;;
22230;SDS011;11284;48.086;-1.652;2022-11-09T00:14:20;12.02;;;2.47;;
22230;SDS011;11284;48.086;-1.652;2022-11-09T00:16:46;12.50;;;2.33;;
22230;SDS011;11284;48.086;-1.652;2022-11-09T00:19:12;13.18;;;2.38;;
22230;SDS011;11284;48.086;-1.652;2022-11-09T00:21:38;12.57;;;2.80;;
22230;SDS011;11284;48.086;-1.652;2022-11-09T00:24:05;16.13;;;3.35;;
22230;SDS011;11284;48.086;-1.652;2022-11-09T00:26:31;15.90;;;2.38;;
22230;SDS011;11284;48.086;-1.652;2022-11-09T00:28:57;13.63;;;2.35;;
22230;SDS011;11284;48.086;-1.652;2022-11-09T00:31:23;10.20;;;2.33;;
22230;SDS011;11284;48.086;-1.652;2022-11-09T00:33:53;14.98;;;2.50;;
22230;SDS011;11284;48.086;-1.652;2022-11-09T00:36:19;15.13;;;3.10;;
22230;SDS011;11284;48.086;-1.652;2022-11-09T00:38:53;18.23;;;2.75;;
22230;SDS011;11284;48.086;-1.652;2022-11-09T00:41:20;11.27;;;2.38;;
22230;SDS011;11284;48.086;-1.652;2022-11-09T00:43:46;16.13;;;2.80;;
22230;SDS011;11284;48.086;-1.652;2022-11-09T00:46:13;13.15;;;2.63;;
22230;SDS011;11284;48.086;-1.652;2022-11-09T00:48:39;14.27;;;2.55;;
22230;SDS011;11284;48.086;-1.652;2022-11-09T00:51:05;12.60;;;2.55;;
22230;SDS011;11284;48.086;-1.652;2022-11-09T00:53:31;13.52;;;2.17;;
22230;SDS011;11284;48.086;-1.652;2022-11-09T00:56:01;13.57;;;2.47;;
22230;SDS011;11284;48.086;-1.652;2022-11-09T00:58:28;16.23;;;2.83;;
22230;SDS011;11284;48.086;-1.652;2022-11-09T01:00:55;14.70;;;2.70;;
22230;SDS011;11284;48.086;-1.652;2022-11-09T01:03:21;11.95;;;1.98;;
22230;SDS011;11284;48.086;-1.652;2022-11-09T01:05:48;13.77;;;2.70;;
22230;SDS011;11284;48.086;-1.652;2022-11-09T01:08:14;13.35;;;2.42;;
22230;SDS011;11284;48.086;-1.652;2022-11-09T01:10:40;13.30;;;2.33;;
22230;SDS011;11284;48.086;-1.652;2022-11-09T01:13:07;11.68;;;2.63;;
22230;SDS011;11284;48.086;-1.652;2022-11-09T01:15:33;13.90;;;2.63;;
22230;SDS011;11284;48.086;-1.652;2022-11-09T01:18:00;11.85;;;2.30;;
22230;SDS011;11284;48.086;-1.652;2022-11-09T01:20:26;12.25;;;2.40;;
22230;SDS011;11284;48.086;-1.652;2022-11-09T01:22:53;18.95;;;3.10;;
22230;SDS011;11284;48.086;-1.652;2022-11-09T01:25:19;15.45;;;3.03;;
22230;SDS011;11284;48.086;-1.652;2022-11-09T01:27:45;14.52;;;2.88;;
22230;SDS011;11284;48.086;-1.652;2022-11-09T01:30:11;15.18;;;2.50;;
22230;SDS011;11284;48.086;-1.652;2022-11-09T01:32:37;15.13;;;2.72;;
22230;SDS011;11284;48.086;-1.652;2022-11-09T01:35:03;16.80;;;3.08;;
22230;SDS011;11284;48.086;-1.652;2022-11-09T01:37:29;15.07;;;2.45;;
22230;SDS011;11284;48.086;-1.652;2022-11-09T01:39:55;16.25;;;2.63;;
22230;SDS011;11284;48.086;-1.652;2022-11-09T01:42:22;10.65;;;2.15;;
22230;SDS011;11284;48.086;-1.652;2022-11-09T01:44:48;17.50;;;3.13;;
22230;SDS011;11284;48.086;-1.652;2022-11-09T01:47:23;17.27;;;2.72;;
22230;SDS011;11284;48.086;-1.652;2022-11-09T01:52:16;16.95;;;2.80;;
22230;SDS011;11284;48.086;-1.652;2022-11-09T01:54:46;14.95;;;2.65;;
22230;SDS011;11284;48.086;-1.652;2022-11-09T01:57:14;17.80;;;2.95;;
22230;SDS011;11284;48.086;-1.652;2022-11-09T01:59:42;15.23;;;3.38;;
22230;SDS011;11284;48.086;-1.652;2022-11-09T02:02:10;16.27;;;2.65;;
22230;SDS011;11284;48.086;-1.652;2022-11-09T02:04:37;16.13;;;3.17;;
22230;SDS011;11284;48.086;-1.652;2022-11-09T02:07:04;14.15;;;2.15;;
22230;SDS011;11284;48.086;-1.652;2022-11-09T02:12:15;13.52;;;2.60;;
22230;SDS011;11284;48.086;-1.652;2022-11-09T02:14:42;17.45;;;3.05;;
22230;SDS011;11284;48.086;-1.652;2022-11-09T02:17:09;14.75;;;2.80;;
22230;SDS011;11284;48.086;-1.652;2022-11-09T02:19:35;15.15;;;2.33;;
22230;SDS011;11284;48.086;-1.652;2022-11-09T02:22:01;14.50;;;2.92;;
22230;SDS011;11284;48.086;-1.652;2022-11-09T02:24:27;15.07;;;3.10;;
22230;SDS011;11284;48.086;-1.652;2022-11-09T02:26:54;14.48;;;3.03;;
22230;SDS011;11284;48.086;-1.652;2022-11-09T02:32:06;19.52;;;3.05;;
22230;SDS011;11284;48.086;-1.652;2022-11-09T02:34:34;14.23;;;2.72;;
22230;SDS011;11284;48.086;-1.652;2022-11-09T02:37:00;15.18;;;2.65;;
22230;SDS011;11284;48.086;-1.652;2022-11-09T02:39:26;15.32;;;2.70;;
22230;SDS011;11284;48.086;-1.652;2022-11-09T02:41:55;14.02;;;2.88;;
22230;SDS011;11284;48.086;-1.652;2022-11-09T02:44:22;15.98;;;3.22;;
22230;SDS011;11284;48.086;-1.652;2022-11-09T02:46:48;15.00;;;3.03;;
22230;SDS011;11284;48.086;-1.652;2022-11-09T02:49:14;15.50;;;2.35;;
22230;SDS011;11284;48.086;-1.652;2022-11-09T02:51:40;11.93;;;2.22;;
22230;SDS011;11284;48.086;-1.652;2022-11-09T02:54:06;14.82;;;3.08;;
22230;SDS011;11284;48.086;-1.652;2022-11-09T02:56:32;14.27;;;2.55;;
22230;SDS011;11284;48.086;-1.652;2022-11-09T02:58:58;18.23;;;2.88;;
22230;SDS011;11284;48.086;-1.652;2022-11-09T03:01:24;15.30;;;2.88;;
22230;SDS011;11284;48.086;-1.652;2022-11-09T03:03:50;16.80;;;2.70;;
22230;SDS011;11284;48.086;-1.652;2022-11-09T03:06:16;13.93;;;2.50;;
22230;SDS011;11284;48.086;-1.652;2022-11-09T03:08:42;18.50;;;2.92;;
22230;SDS011;11284;48.086;-1.652;2022-11-09T03:11:08;12.73;;;2.25;;
22230;SDS011;11284;48.086;-1.652;2022-11-09T03:13:34;13.43;;;2.40;;
22230;SDS011;11284;48.086;-1.652;2022-11-09T03:16:04;15.20;;;2.70;;
22230;SDS011;11284;48.086;-1.652;2022-11-09T03:18:30;12.60;;;2.72;;
22230;SDS011;11284;48.086;-1.652;2022-11-09T03:21:00;15.63;;;2.80;;
22230;SDS011;11284;48.086;-1.652;2022-11-09T03:23:27;13.32;;;2.97;;
22230;SDS011;11284;48.086;-1.652;2022-11-09T03:25:53;12.60;;;2.15;;
22230;SDS011;11284;48.086;-1.652;2022-11-09T03:28:19;14.90;;;2.90;;
22230;SDS011;11284;48.086;-1.652;2022-11-09T03:30:45;15.00;;;2.33;;
22230;SDS011;11284;48.086;-1.652;2022-11-09T03:33:11;15.20;;;2.40;;
22230;SDS011;11284;48.086;-1.652;2022-11-09T03:35:38;12.23;;;2.40;;
22230;SDS011;11284;48.086;-1.652;2022-11-09T03:38:04;11.18;;;2.38;;
22230;SDS011;11284;48.086;-1.652;2022-11-09T03:40:30;14.10;;;2.55;;
22230;SDS011;11284;48.086;-1.652;2022-11-09T03:42:57;16.58;;;2.90;;
22230;SDS011;11284;48.086;-1.652;2022-11-09T03:45:23;12.40;;;2.42;;
22230;SDS011;11284;48.086;-1.652;2022-11-09T03:47:49;13.32;;;1.98;;
22230;SDS011;11284;48.086;-1.652;2022-11-09T03:50:15;15.23;;;2.90;;
22230;SDS011;11284;48.086;-1.652;2022-11-09T03:52:45;12.88;;;2.40;;
22230;SDS011;11284;48.086;-1.652;2022-11-09T03:55:12;12.57;;;1.92;;
22230;SDS011;11284;48.086;-1.652;2022-11-09T03:57:38;9.65;;;2.33;;
22230;SDS011;11284;48.086;-1.652;2022-11-09T04:00:05;13.48;;;2.35;;
22230;SDS011;11284;48.086;-1.652;2022-11-09T04:02:31;16.23;;;2.20;;
22230;SDS011;11284;48.086;-1.652;2022-11-09T04:04:57;13.10;;;2.67;;
22230;SDS011;11284;48.086;-1.652;2022-11-09T04:07:23;11.60;;;2.10;;
22230;SDS011;11284;48.086;-1.652;2022-11-09T04:09:49;13.13;;;1.92;;
22230;SDS011;11284;48.086;-1.652;2022-11-09T04:12:15;12.80;;;2.45;;
22230;SDS011;11284;48.086;-1.652;2022-11-09T04:14:41;14.38;;;2.60;;
22230;SDS011;11284;48.086;-1.652;2022-11-09T04:17:07;12.57;;;2.53;;
22230;SDS011;11284;48.086;-1.652;2022-11-09T04:19:33;10.55;;;2.10;;
22230;SDS011;11284;48.086;-1.652;2022-11-09T04:21:59;10.70;;;1.88;;
22230;SDS011;11284;48.086;-1.652;2022-11-09T04:24:25;12.35;;;2.65;;
22230;SDS011;11284;48.086;-1.652;2022-11-09T04:26:51;13.38;;;3.03;;
22230;SDS011;11284;48.086;-1.652;2022-11-09T04:29:17;13.23;;;2.45;;
22230;SDS011;11284;48.086;-1.652;2022-11-09T04:31:43;11.68;;;1.98;;
22230;SDS011;11284;48.086;-1.652;2022-11-09T04:34:09;16.10;;;2.65;;
22230;SDS011;11284;48.086;-1.652;2022-11-09T04:36:35;15.30;;;2.55;;
22230;SDS011;11284;48.086;-1.652;2022-11-09T04:39:01;11.60;;;2.15;;
22230;SDS011;11284;48.086;-1.652;2022-11-09T04:41:27;11.90;;;2.58;;
22230;SDS011;11284;48.086;-1.652;2022-11-09T04:43:53;14.13;;;2.33;;
22230;SDS011;11284;48.086;-1.652;2022-11-09T04:46:19;14.05;;;2.40;;
22230;SDS011;11284;48.086;-1.652;2022-11-09T04:48:45;14.20;;;2.10;;
22230;SDS011;11284;48.086;-1.652;2022-11-09T04:51:11;12.02;;;2.08;;
22230;SDS011;11284;48.086;-1.652;2022-11-09T04:53:38;13.25;;;2.28;;
22230;SDS011;11284;48.086;-1.652;2022-11-09T04:56:04;15.15;;;2.42;;
22230;SDS011;11284;48.086;-1.652;2022-11-09T04:58:31;9.95;;;1.73;;
22230;SDS011;11284;48.086;-1.652;2022-11-09T05:01:15;14.15;;;2.13;;
22230;SDS011;11284;48.086;-1.652;2022-11-09T05:03:41;14.05;;;2.20;;
22230;SDS011;11284;48.086;-1.652;2022-11-09T05:06:07;10.73;;;2.40;;
22230;SDS011;11284;48.086;-1.652;2022-11-09T05:08:52;10.38;;;1.90;;
22230;SDS011;11284;48.086;-1.652;2022-11-09T05:11:19;11.82;;;2.17;;
22230;SDS011;11284;48.086;-1.652;2022-11-09T05:13:45;16.55;;;2.33;;
22230;SDS011;11284;48.086;-1.652;2022-11-09T05:16:11;15.93;;;2.28;;
22230;SDS011;11284;48.086;-1.652;2022-11-09T05:18:37;15.13;;;2.47;;
22230;SDS011;11284;48.086;-1.652;2022-11-09T05:21:03;13.18;;;2.75;;
22230;SDS011;11284;48.086;-1.652;2022-11-09T05:23:29;19.55;;;2.40;;
22230;SDS011;11284;48.086;-1.652;2022-11-09T05:26:14;16.10;;;2.28;;
22230;SDS011;11284;48.086;-1.652;2022-11-09T05:28:40;14.18;;;2.10;;
22230;SDS011;11284;48.086;-1.652;2022-11-09T05:31:06;13.35;;;2.30;;
22230;SDS011;11284;48.086;-1.652;2022-11-09T05:33:32;11.07;;;2.17;;
22230;SDS011;11284;48.086;-1.652;2022-11-09T05:35:58;13.98;;;2.67;;
22230;SDS011;11284;48.086;-1.652;2022-11-09T05:38:24;9.82;;;2.03;;
22230;SDS011;11284;48.086;-1.652;2022-11-09T05:40:50;12.43;;;2.05;;
22230;SDS011;11284;48.086;-1.652;2022-11-09T05:43:17;12.88;;;2.25;;
22230;SDS011;11284;48.086;-1.652;2022-11-09T05:45:43;14.77;;;1.95;;
22230;SDS011;11284;48.086;-1.652;2022-11-09T05:48:13;11.00;;;2.10;;
22230;SDS011;11284;48.086;-1.652;2022-11-09T05:50:40;14.77;;;3.05;;
22230;SDS011;11284;48.086;-1.652;2022-11-09T05:53:06;12.23;;;2.30;;
22230;SDS011;11284;48.086;-1.652;2022-11-09T05:55:33;11.25;;;2.70;;
22230;SDS011;11284;48.086;-1.652;2022-11-09T05:57:59;11.57;;;2.35;;
22230;SDS011;11284;48.086;-1.652;2022-11-09T06:00:25;10.88;;;1.77;;
22230;SDS011;11284;48.086;-1.652;2022-11-09T06:02:51;11.98;;;2.17;;
22230;SDS011;11284;48.086;-1.652;2022-11-09T06:05:17;16.15;;;2.40;;
22230;SDS011;11284;48.086;-1.652;2022-11-09T06:07:44;13.57;;;2.40;;
22230;SDS011;11284;48.086;-1.652;2022-11-09T06:10:11;11.73;;;2.30;;
22230;SDS011;11284;48.086;-1.652;2022-11-09T06:12:37;13.90;;;2.25;;
22230;SDS011;11284;48.086;-1.652;2022-11-09T06:15:03;15.32;;;2.85;;
22230;SDS011;11284;48.086;-1.652;2022-11-09T06:17:29;12.35;;;2.50;;
22230;SDS011;11284;48.086;-1.652;2022-11-09T06:19:56;17.25;;;2.33;;
22230;SDS011;11284;48.086;-1.652;2022-11-09T06:22:22;15.50;;;2.45;;
22230;SDS011;11284;48.086;-1.652;2022-11-09T06:24:47;16.13;;;2.13;;
22230;SDS011;11284;48.086;-1.652;2022-11-09T06:27:13;13.95;;;2.50;;
22230;SDS011;11284;48.086;-1.652;2022-11-09T06:29:39;19.13;;;3.22;;
22230;SDS011;11284;48.086;-1.652;2022-11-09T06:32:05;16.23;;;2.15;;
22230;SDS011;11284;48.086;-1.652;2022-11-09T06:34:31;17.83;;;2.42;;
22230;SDS011;11284;48.086;-1.652;2022-11-09T06:36:57;11.63;;;2.38;;
22230;SDS011;11284;48.086;-1.652;2022-11-09T06:39:23;15.98;;;2.53;;
22230;SDS011;11284;48.086;-1.652;2022-11-09T06:41:49;16.98;;;2.42;;
22230;SDS011;11284;48.086;-1.652;2022-11-09T06:44:15;16.73;;;3.08;;
22230;SDS011;11284;48.086;-1.652;2022-11-09T06:46:41;14.68;;;2.58;;
22230;SDS011;11284;48.086;-1.652;2022-11-09T06:49:07;16.63;;;2.30;;
22230;SDS011;11284;48.086;-1.652;2022-11-09T06:51:35;19.15;;;2.92;;
22230;SDS011;11284;48.086;-1.652;2022-11-09T06:54:01;13.23;;;2.60;;
22230;SDS011;11284;48.086;-1.652;2022-11-09T06:56:27;13.43;;;3.38;;
22230;SDS011;11284;48.086;-1.652;2022-11-09T06:58:53;13.00;;;2.30;;
22230;SDS011;11284;48.086;-1.652;2022-11-09T07:01:19;15.30;;;2.80;;
22230;SDS011;11284;48.086;-1.652;2022-11-09T07:03:47;14.60;;;3.13;;
22230;SDS011;11284;48.086;-1.652;2022-11-09T07:06:13;14.82;;;2.70;;
22230;SDS011;11284;48.086;-1.652;2022-11-09T07:08:39;11.88;;;2.38;;
22230;SDS011;11284;48.086;-1.652;2022-11-09T07:11:06;12.65;;;2.80;;
22230;SDS011;11284;48.086;-1.652;2022-11-09T07:13:33;12.52;;;2.50;;
22230;SDS011;11284;48.086;-1.652;2022-11-09T07:15:59;9.95;;;2.20;;
22230;SDS011;11284;48.086;-1.652;2022-11-09T07:18:25;12.00;;;2.53;;
22230;SDS011;11284;48.086;-1.652;2022-11-09T07:20:51;12.02;;;2.50;;
22230;SDS011;11284;48.086;-1.652;2022-11-09T07:23:17;9.27;;;1.83;;
22230;SDS011;11284;48.086;-1.652;2022-11-09T07:25:43;10.57;;;2.20;;
22230;SDS011;11284;48.086;-1.652;2022-11-09T07:28:09;15.07;;;2.80;;
22230;SDS011;11284;48.086;-1.652;2022-11-09T07:30:36;12.90;;;2.35;;
22230;SDS011;11284;48.086;-1.652;2022-11-09T07:33:03;13.90;;;2.65;;
22230;SDS011;11284;48.086;-1.652;2022-11-09T07:35:29;10.85;;;2.08;;
22230;SDS011;11284;48.086;-1.652;2022-11-09T07:37:58;11.43;;;2.55;;
22230;SDS011;11284;48.086;-1.652;2022-11-09T07:40:24;15.88;;;2.28;;
22230;SDS011;11284;48.086;-1.652;2022-11-09T07:42:50;11.85;;;2.53;;
22230;SDS011;11284;48.086;-1.652;2022-11-09T07:45:17;13.48;;;2.65;;
22230;SDS011;11284;48.086;-1.652;2022-11-09T07:47:43;15.98;;;2.47;;
22230;SDS011;11284;48.086;-1.652;2022-11-09T07:50:09;13.25;;;2.60;;
22230;SDS011;11284;48.086;-1.652;2022-11-09T07:52:35;9.75;;;2.58;;
22230;SDS011;11284;48.086;-1.652;2022-11-09T07:55:01;12.65;;;2.63;;
22230;SDS011;11284;48.086;-1.652;2022-11-09T07:57:27;14.73;;;3.42;;
22230;SDS011;11284;48.086;-1.652;2022-11-09T07:59:53;13.68;;;3.05;;
22230;SDS011;11284;48.086;-1.652;2022-11-09T08:02:19;13.35;;;3.17;;
22230;SDS011;11284;48.086;-1.652;2022-11-09T08:04:45;14.15;;;3.45;;
22230;SDS011;11284;48.086;-1.652;2022-11-09T08:07:11;14.05;;;2.50;;
22230;SDS011;11284;48.086;-1.652;2022-11-09T08:09:37;14.35;;;2.42;;
22230;SDS011;11284;48.086;-1.652;2022-11-09T08:12:03;10.60;;;2.20;;
22230;SDS011;11284;48.086;-1.652;2022-11-09T08:14:29;8.30;;;1.77;;
22230;SDS011;11284;48.086;-1.652;2022-11-09T08:16:55;11.23;;;1.85;;
22230;SDS011;11284;48.086;-1.652;2022-11-09T08:19:21;9.88;;;1.70;;
22230;SDS011;11284;48.086;-1.652;2022-11-09T08:21:47;10.90;;;2.28;;
22230;SDS011;11284;48.086;-1.652;2022-11-09T08:24:13;10.15;;;2.05;;
22230;SDS011;11284;48.086;-1.652;2022-11-09T08:26:39;8.20;;;1.95;;
22230;SDS011;11284;48.086;-1.652;2022-11-09T08:29:05;9.02;;;3.33;;
22230;SDS011;11284;48.086;-1.652;2022-11-09T08:31:31;9.20;;;1.77;;
22230;SDS011;11284;48.086;-1.652;2022-11-09T08:33:57;8.68;;;2.40;;
22230;SDS011;11284;48.086;-1.652;2022-11-09T08:36:23;14.82;;;4.70;;
22230;SDS011;11284;48.086;-1.652;2022-11-09T08:38:50;10.35;;;1.98;;
22230;SDS011;11284;48.086;-1.652;2022-11-09T08:41:16;10.40;;;2.65;;
22230;SDS011;11284;48.086;-1.652;2022-11-09T08:43:42;12.20;;;2.95;;
22230;SDS011;11284;48.086;-1.652;2022-11-09T08:46:08;13.10;;;2.20;;
22230;SDS011;11284;48.086;-1.652;2022-11-09T08:48:34;9.70;;;1.98;;
22230;SDS011;11284;48.086;-1.652;2022-11-09T08:51:00;10.35;;;2.30;;
22230;SDS011;11284;48.086;-1.652;2022-11-09T08:53:27;10.50;;;1.92;;
22230;SDS011;11284;48.086;-1.652;2022-11-09T08:55:53;14.27;;;3.28;;
22230;SDS011;11284;48.086;-1.652;2022-11-09T08:58:20;9.80;;;2.22;;
22230;SDS011;11284;48.086;-1.652;2022-11-09T09:00:46;10.45;;;2.35;;
22230;SDS011;11284;48.086;-1.652;2022-11-09T09:03:12;9.70;;;2.47;;
22230;SDS011;11284;48.086;-1.652;2022-11-09T09:05:38;11.77;;;2.30;;
22230;SDS011;11284;48.086;-1.652;2022-11-09T09:08:04;14.88;;;2.60;;
22230;SDS011;11284;48.086;-1.652;2022-11-09T09:10:31;12.27;;;2.58;;
22230;SDS011;11284;48.086;-1.652;2022-11-09T09:12:59;11.75;;;2.90;;
22230;SDS011;11284;48.086;-1.652;2022-11-09T09:15:25;12.50;;;2.63;;
22230;SDS011;11284;48.086;-1.652;2022-11-09T09:17:51;10.25;;;3.05;;
22230;SDS011;11284;48.086;-1.652;2022-11-09T09:20:17;8.30;;;2.20;;
22230;SDS011;11284;48.086;-1.652;2022-11-09T09:22:43;12.45;;;2.65;;
22230;SDS011;11284;48.086;-1.652;2022-11-09T09:25:09;12.23;;;2.22;;
22230;SDS011;11284;48.086;-1.652;2022-11-09T09:27:35;11.20;;;2.47;;
22230;SDS011;11284;48.086;-1.652;2022-11-09T09:30:02;11.50;;;2.40;;
22230;SDS011;11284;48.086;-1.652;2022-11-09T09:32:28;8.95;;;2.03;;
22230;SDS011;11284;48.086;-1.652;2022-11-09T09:34:54;12.52;;;2.28;;
22230;SDS011;11284;48.086;-1.652;2022-11-09T09:37:20;7.63;;;2.00;;
22230;SDS011;11284;48.086;-1.652;2022-11-09T09:39:46;13.23;;;2.13;;
22230;SDS011;11284;48.086;-1.652;2022-11-09T09:42:19;9.90;;;2.05;;
22230;SDS011;11284;48.086;-1.652;2022-11-09T09:44:52;11.30;;;2.15;;
22230;SDS011;11284;48.086;-1.652;2022-11-09T09:47:21;15.60;;;2.80;;
22230;SDS011;11284;48.086;-1.652;2022-11-09T09:49:53;9.55;;;2.10;;
22230;SDS011;11284;48.086;-1.652;2022-11-09T09:52:22;13.60;;;2.38;;
22230;SDS011;11284;48.086;-1.652;2022-11-09T09:55:04;12.93;;;3.60;;
22230;SDS011;11284;48.086;-1.652;2022-11-09T09:57:32;14.63;;;2.45;;
22230;SDS011;11284;48.086;-1.652;2022-11-09T10:00:00;20.13;;;7.50;;
22230;SDS011;11284;48.086;-1.652;2022-11-09T10:02:30;10.70;;;4.75;;
22230;SDS011;11284;48.086;-1.652;2022-11-09T10:04:57;12.43;;;2.25;;
22230;SDS011;11284;48.086;-1.652;2022-11-09T10:10:02;14.20;;;2.90;;
22230;SDS011;11284;48.086;-1.652;2022-11-09T10:15:18;12.07;;;2.10;;
22230;SDS011;11284;48.086;-1.652;2022-11-09T10:20:33;10.63;;;2.20;;
22230;SDS011;11284;48.086;-1.652;2022-11-09T10:25:27;9.25;;;1.90;;
22230;SDS011;11284;48.086;-1.652;2022-11-09T10:27:55;12.45;;;2.10;;
22230;SDS011;11284;48.086;-1.652;2022-11-09T10:30:22;12.77;;;2.85;;
22230;SDS011;11284;48.086;-1.652;2022-11-09T10:32:54;14.05;;;2.50;;
22230;SDS011;11284;48.086;-1.652;2022-11-09T10:37:47;8.50;;;1.80;;
22230;SDS011;11284;48.086;-1.652;2022-11-09T10:42:50;8.77;;;1.92;;
22230;SDS011;11284;48.086;-1.652;2022-11-09T10:45:34;11.40;;;2.05;;
22230;SDS011;11284;48.086;-1.652;2022-11-09T10:48:01;12.13;;;1.85;;
22230;SDS011;11284;48.086;-1.652;2022-11-09T10:50:37;9.10;;;1.55;;
22230;SDS011;11284;48.086;-1.652;2022-11-09T10:53:07;9.77;;;1.83;;
22230;SDS011;11284;48.086;-1.652;2022-11-09T10:55:35;9.40;;;1.70;;
22230;SDS011;11284;48.086;-1.652;2022-11-09T10:58:11;8.93;;;1.58;;
22230;SDS011;11284;48.086;-1.652;2022-11-09T11:01:02;9.13;;;1.80;;
22230;SDS011;11284;48.086;-1.652;2022-11-09T11:03:26;11.30;;;2.10;;
22230;SDS011;11284;48.086;-1.652;2022-11-09T11:05:57;11.73;;;2.08;;
22230;SDS011;11284;48.086;-1.652;2022-11-09T11:08:31;10.43;;;1.60;;
22230;SDS011;11284;48.086;-1.652;2022-11-09T11:11:07;9.45;;;1.80;;
22230;SDS011;11284;48.086;-1.652;2022-11-09T11:13:33;11.02;;;1.60;;
22230;SDS011;11284;48.086;-1.652;2022-11-09T11:15:59;7.70;;;1.30;;
22230;SDS011;11284;48.086;-1.652;2022-11-09T11:18:26;9.18;;;1.60;;
22230;SDS011;11284;48.086;-1.652;2022-11-09T11:23:37;8.13;;;1.67;;
22230;SDS011;11284;48.086;-1.652;2022-11-09T11:28:45;8.13;;;1.77;;
22230;SDS011;11284;48.086;-1.652;2022-11-09T11:31:16;7.93;;;1.70;;
22230;SDS011;11284;48.086;-1.652;2022-11-09T11:33:43;10.85;;;1.50;;
22230;SDS011;11284;48.086;-1.652;2022-11-09T11:41:58;10.95;;;1.65;;
22230;SDS011;11284;48.086;-1.652;2022-11-09T11:47:14;6.78;;;1.77;;
22230;SDS011;11284;48.086;-1.652;2022-11-09T12:00:12;12.70;;;4.50;;
22230;SDS011;11284;48.086;-1.652;2022-11-09T12:11:26;7.68;;;1.50;;
22230;SDS011;11284;48.086;-1.652;2022-11-09T12:21:11;8.95;;;2.33;;
22230;SDS011;11284;48.086;-1.652;2022-11-09T12:23:42;7.23;;;1.90;;
22230;SDS011;11284;48.086;-1.652;2022-11-09T12:31:35;5.97;;;1.20;;
22230;SDS011;11284;48.086;-1.652;2022-11-09T12:34:14;7.25;;;1.75;;
22230;SDS011;11284;48.086;-1.652;2022-11-09T12:37:01;10.38;;;1.60;;
22230;SDS011;11284;48.086;-1.652;2022-11-09T12:39:31;10.20;;;2.35;;
22230;SDS011;11284;48.086;-1.652;2022-11-09T12:41:59;9.90;;;2.67;;
22230;SDS011;11284;48.086;-1.652;2022-11-09T12:44:30;7.30;;;1.67;;
22230;SDS011;11284;48.086;-1.652;2022-11-09T12:47:01;8.65;;;1.50;;
22230;SDS011;11284;48.086;-1.652;2022-11-09T12:49:32;6.60;;;1.20;;
22230;SDS011;11284;48.086;-1.652;2022-11-09T12:51:59;9.32;;;1.58;;
22230;SDS011;11284;48.086;-1.652;2022-11-09T12:54:25;7.50;;;2.35;;
22230;SDS011;11284;48.086;-1.652;2022-11-09T12:56:54;6.90;;;1.90;;
22230;SDS011;11284;48.086;-1.652;2022-11-09T13:01:54;6.75;;;1.30;;
22230;SDS011;11284;48.086;-1.652;2022-11-09T13:04:21;7.57;;;1.27;;
22230;SDS011;11284;48.086;-1.652;2022-11-09T13:09:28;4.88;;;1.17;;
22230;SDS011;11284;48.086;-1.652;2022-11-09T13:11:55;8.85;;;1.58;;
22230;SDS011;11284;48.086;-1.652;2022-11-09T13:27:34;7.35;;;1.20;;
22230;SDS011;11284;48.086;-1.652;2022-11-09T13:30:00;7.88;;;1.13;;
22230;SDS011;11284;48.086;-1.652;2022-11-09T13:32:27;7.55;;;1.90;;
22230;SDS011;11284;48.086;-1.652;2022-11-09T13:37:36;7.75;;;1.77;;
22230;SDS011;11284;48.086;-1.652;2022-11-09T13:43:03;11.50;;;3.25;;
22230;SDS011;11284;48.086;-1.652;2022-11-09T13:50:56;12.90;;;5.68;;
22230;SDS011;11284;48.086;-1.652;2022-11-09T13:55:58;9.00;;;1.75;;
22230;SDS011;11284;48.086;-1.652;2022-11-09T13:58:37;6.78;;;1.25;;
22230;SDS011;11284;48.086;-1.652;2022-11-09T14:01:21;6.28;;;1.55;;
22230;SDS011;11284;48.086;-1.652;2022-11-09T14:03:49;11.63;;;3.17;;
22230;SDS011;11284;48.086;-1.652;2022-11-09T14:06:16;8.25;;;1.67;;
22230;SDS011;11284;48.086;-1.652;2022-11-09T14:08:43;7.85;;;1.52;;
22230;SDS011;11284;48.086;-1.652;2022-11-09T14:21:35;9.52;;;1.90;;
22230;SDS011;11284;48.086;-1.652;2022-11-09T14:24:22;8.98;;;1.75;;
22230;SDS011;11284;48.086;-1.652;2022-11-09T14:29:24;9.55;;;1.40;;
22230;SDS011;11284;48.086;-1.652;2022-11-09T14:31:50;7.82;;;1.50;;
22230;SDS011;11284;48.086;-1.652;2022-11-09T14:34:16;7.88;;;1.65;;
22230;SDS011;11284;48.086;-1.652;2022-11-09T14:36:42;6.38;;;1.10;;
22230;SDS011;11284;48.086;-1.652;2022-11-09T14:39:29;6.45;;;1.45;;
22230;SDS011;11284;48.086;-1.652;2022-11-09T14:41:56;6.00;;;1.30;;
22230;SDS011;11284;48.086;-1.652;2022-11-09T14:44:29;9.23;;;1.45;;
22230;SDS011;11284;48.086;-1.652;2022-11-09T14:46:59;6.95;;;1.50;;
22230;SDS011;11284;48.086;-1.652;2022-11-09T14:49:26;7.60;;;1.30;;
22230;SDS011;11284;48.086;-1.652;2022-11-09T14:51:52;9.23;;;1.75;;
22230;SDS011;11284;48.086;-1.652;2022-11-09T14:54:24;7.25;;;1.45;;
22230;SDS011;11284;48.086;-1.652;2022-11-09T14:56:52;9.40;;;1.50;;
22230;SDS011;11284;48.086;-1.652;2022-11-09T14:59:36;8.82;;;1.58;;
22230;SDS011;11284;48.086;-1.652;2022-11-09T15:02:09;7.70;;;2.30;;
22230;SDS011;11284;48.086;-1.652;2022-11-09T15:07:02;7.40;;;2.03;;
22230;SDS011;11284;48.086;-1.652;2022-11-09T15:09:33;9.38;;;4.57;;
22230;SDS011;11284;48.086;-1.652;2022-11-09T15:11:59;10.15;;;2.58;;
22230;SDS011;11284;48.086;-1.652;2022-11-09T15:14:27;9.77;;;1.60;;
22230;SDS011;11284;48.086;-1.652;2022-11-09T15:16:58;9.13;;;1.55;;
22230;SDS011;11284;48.086;-1.652;2022-11-09T15:19:32;9.10;;;1.58;;
22230;SDS011;11284;48.086;-1.652;2022-11-09T15:21:58;7.53;;;1.35;;
22230;SDS011;11284;48.086;-1.652;2022-11-09T15:24:25;9.30;;;2.97;;
22230;SDS011;11284;48.086;-1.652;2022-11-09T15:26:52;10.25;;;3.67;;
22230;SDS011;11284;48.086;-1.652;2022-11-09T15:29:26;7.38;;;1.33;;
22230;SDS011;11284;48.086;-1.652;2022-11-09T15:34:41;10.77;;;2.58;;
22230;SDS011;11284;48.086;-1.652;2022-11-09T15:39:49;9.02;;;1.40;;
22230;SDS011;11284;48.086;-1.652;2022-11-09T15:42:15;7.15;;;1.63;;
22230;SDS011;11284;48.086;-1.652;2022-11-09T15:44:41;9.75;;;1.42;;
22230;SDS011;11284;48.086;-1.652;2022-11-09T15:50:15;6.82;;;1.35;;
22230;SDS011;11284;48.086;-1.652;2022-11-09T15:52:42;7.95;;;1.35;;
22230;SDS011;11284;48.086;-1.652;2022-11-09T15:55:12;7.32;;;1.90;;
22230;SDS011;11284;48.086;-1.652;2022-11-09T15:57:38;8.20;;;1.60;;
22230;SDS011;11284;48.086;-1.652;2022-11-09T16:00:04;7.00;;;2.20;;
22230;SDS011;11284;48.086;-1.652;2022-11-09T16:02:31;7.15;;;1.30;;
22230;SDS011;11284;48.086;-1.652;2022-11-09T16:04:57;11.68;;;3.10;;
22230;SDS011;11284;48.086;-1.652;2022-11-09T16:07:23;8.70;;;1.67;;
22230;SDS011;11284;48.086;-1.652;2022-11-09T16:09:49;9.73;;;1.73;;
22230;SDS011;11284;48.086;-1.652;2022-11-09T16:12:14;7.55;;;1.48;;
22230;SDS011;11284;48.086;-1.652;2022-11-09T16:14:41;8.93;;;1.65;;
22230;SDS011;11284;48.086;-1.652;2022-11-09T16:17:07;8.27;;;1.80;;
22230;SDS011;11284;48.086;-1.652;2022-11-09T16:19:33;8.32;;;1.25;;
22230;SDS011;11284;48.086;-1.652;2022-11-09T16:21:59;9.20;;;1.63;;
22230;SDS011;11284;48.086;-1.652;2022-11-09T16:24:26;8.85;;;1.58;;
22230;SDS011;11284;48.086;-1.652;2022-11-09T16:26:53;8.75;;;1.73;;
22230;SDS011;11284;48.086;-1.652;2022-11-09T16:29:20;8.13;;;1.50;;
22230;SDS011;11284;48.086;-1.652;2022-11-09T16:31:47;7.20;;;2.20;;
22230;SDS011;11284;48.086;-1.652;2022-11-09T16:34:13;8.60;;;1.92;;